sensor_id;sensor_type;location;lat;lon;timestamp;P1;durP1;ratioP1;P2;durP2;ratioP2
68082;SDS011;54870;50.336;3.506;2022-08-19T00:01:49;37.22;;;23.42;;
68082;SDS011;54870;50.336;3.506;2022-08-19T00:04:16;34.55;;;22.45;;
68082;SDS011;54870;50.336;3.506;2022-08-19T00:06:43;31.17;;;19.95;;
68082;SDS011;54870;50.336;3.506;2022-08-19T00:09:11;30.35;;;19.50;;
68082;SDS011;54870;50.336;3.506;2022-08-19T00:11:38;31.42;;;19.50;;
68082;SDS011;54870;50.336;3.506;2022-08-19T00:14:05;26.58;;;18.17;;
68082;SDS011;54870;50.336;3.506;2022-08-19T00:16:31;27.35;;;18.25;;
68082;SDS011;54870;50.336;3.506;2022-08-19T00:18:58;25.05;;;16.80;;
68082;SDS011;54870;50.336;3.506;2022-08-19T00:21:24;22.63;;;14.52;;
68082;SDS011;54870;50.336;3.506;2022-08-19T00:23:51;22.10;;;15.45;;
68082;SDS011;54870;50.336;3.506;2022-08-19T00:26:17;21.23;;;13.48;;
68082;SDS011;54870;50.336;3.506;2022-08-19T00:28:43;18.77;;;12.65;;
68082;SDS011;54870;50.336;3.506;2022-08-19T00:31:10;20.60;;;12.23;;
68082;SDS011;54870;50.336;3.506;2022-08-19T00:33:36;17.40;;;11.65;;
68082;SDS011;54870;50.336;3.506;2022-08-19T00:36:04;19.67;;;11.05;;
68082;SDS011;54870;50.336;3.506;2022-08-19T00:38:31;14.98;;;9.77;;
68082;SDS011;54870;50.336;3.506;2022-08-19T00:40:57;16.15;;;9.63;;
68082;SDS011;54870;50.336;3.506;2022-08-19T00:43:24;15.68;;;10.00;;
68082;SDS011;54870;50.336;3.506;2022-08-19T00:45:51;13.80;;;8.68;;
68082;SDS011;54870;50.336;3.506;2022-08-19T00:48:17;16.58;;;8.95;;
68082;SDS011;54870;50.336;3.506;2022-08-19T00:50:44;17.67;;;9.48;;
68082;SDS011;54870;50.336;3.506;2022-08-19T00:53:11;16.45;;;9.57;;
68082;SDS011;54870;50.336;3.506;2022-08-19T00:55:38;17.70;;;9.82;;
68082;SDS011;54870;50.336;3.506;2022-08-19T00:58:08;16.13;;;10.38;;
68082;SDS011;54870;50.336;3.506;2022-08-19T01:00:36;18.73;;;11.00;;
68082;SDS011;54870;50.336;3.506;2022-08-19T01:03:04;18.45;;;11.38;;
68082;SDS011;54870;50.336;3.506;2022-08-19T01:05:33;19.27;;;11.02;;
68082;SDS011;54870;50.336;3.506;2022-08-19T01:08:00;17.80;;;11.10;;
68082;SDS011;54870;50.336;3.506;2022-08-19T01:10:29;18.58;;;10.90;;
68082;SDS011;54870;50.336;3.506;2022-08-19T01:12:56;20.15;;;11.32;;
68082;SDS011;54870;50.336;3.506;2022-08-19T01:15:27;16.45;;;11.43;;
68082;SDS011;54870;50.336;3.506;2022-08-19T01:17:53;18.08;;;10.80;;
68082;SDS011;54870;50.336;3.506;2022-08-19T01:20:21;16.67;;;10.75;;
68082;SDS011;54870;50.336;3.506;2022-08-19T01:22:49;18.95;;;10.30;;
68082;SDS011;54870;50.336;3.506;2022-08-19T01:25:16;16.90;;;10.25;;
68082;SDS011;54870;50.336;3.506;2022-08-19T01:27:44;16.85;;;9.75;;
68082;SDS011;54870;50.336;3.506;2022-08-19T01:30:14;18.85;;;9.88;;
68082;SDS011;54870;50.336;3.506;2022-08-19T01:32:41;20.23;;;10.32;;
68082;SDS011;54870;50.336;3.506;2022-08-19T01:35:08;17.13;;;10.43;;
68082;SDS011;54870;50.336;3.506;2022-08-19T01:38:09;18.70;;;10.30;;
68082;SDS011;54870;50.336;3.506;2022-08-19T01:40:31;17.10;;;9.82;;
68082;SDS011;54870;50.336;3.506;2022-08-19T01:42:58;19.00;;;9.80;;
68082;SDS011;54870;50.336;3.506;2022-08-19T01:45:25;20.30;;;10.35;;
68082;SDS011;54870;50.336;3.506;2022-08-19T01:47:52;16.88;;;9.70;;
68082;SDS011;54870;50.336;3.506;2022-08-19T01:50:18;18.23;;;10.35;;
68082;SDS011;54870;50.336;3.506;2022-08-19T01:52:45;20.20;;;10.52;;
68082;SDS011;54870;50.336;3.506;2022-08-19T01:55:12;18.95;;;10.43;;
68082;SDS011;54870;50.336;3.506;2022-08-19T01:57:39;20.05;;;11.60;;
68082;SDS011;54870;50.336;3.506;2022-08-19T02:00:07;18.85;;;9.90;;
68082;SDS011;54870;50.336;3.506;2022-08-19T02:02:34;19.73;;;9.45;;
68082;SDS011;54870;50.336;3.506;2022-08-19T02:05:00;16.25;;;8.25;;
68082;SDS011;54870;50.336;3.506;2022-08-19T02:07:26;16.98;;;8.40;;
68082;SDS011;54870;50.336;3.506;2022-08-19T02:09:54;13.52;;;7.75;;
68082;SDS011;54870;50.336;3.506;2022-08-19T02:12:20;13.27;;;8.13;;
68082;SDS011;54870;50.336;3.506;2022-08-19T02:14:46;12.20;;;7.60;;
68082;SDS011;54870;50.336;3.506;2022-08-19T02:17:13;19.52;;;8.52;;
68082;SDS011;54870;50.336;3.506;2022-08-19T02:19:39;12.95;;;7.10;;
68082;SDS011;54870;50.336;3.506;2022-08-19T02:22:05;15.10;;;7.13;;
68082;SDS011;54870;50.336;3.506;2022-08-19T02:24:31;15.63;;;7.45;;
68082;SDS011;54870;50.336;3.506;2022-08-19T02:26:57;15.45;;;7.22;;
68082;SDS011;54870;50.336;3.506;2022-08-19T02:29:23;14.60;;;7.35;;
68082;SDS011;54870;50.336;3.506;2022-08-19T02:31:49;12.38;;;7.07;;
68082;SDS011;54870;50.336;3.506;2022-08-19T02:34:16;11.68;;;6.15;;
68082;SDS011;54870;50.336;3.506;2022-08-19T02:36:42;14.75;;;6.45;;
68082;SDS011;54870;50.336;3.506;2022-08-19T02:39:09;15.18;;;7.07;;
68082;SDS011;54870;50.336;3.506;2022-08-19T02:41:35;11.68;;;6.00;;
68082;SDS011;54870;50.336;3.506;2022-08-19T02:44:01;11.60;;;6.22;;
68082;SDS011;54870;50.336;3.506;2022-08-19T02:46:29;13.95;;;6.40;;
68082;SDS011;54870;50.336;3.506;2022-08-19T02:48:56;13.23;;;5.75;;
68082;SDS011;54870;50.336;3.506;2022-08-19T02:51:24;10.98;;;5.75;;
68082;SDS011;54870;50.336;3.506;2022-08-19T02:53:50;10.55;;;5.63;;
68082;SDS011;54870;50.336;3.506;2022-08-19T02:56:16;18.55;;;6.22;;
68082;SDS011;54870;50.336;3.506;2022-08-19T02:58:43;13.02;;;5.82;;
68082;SDS011;54870;50.336;3.506;2022-08-19T03:01:10;11.95;;;5.70;;
68082;SDS011;54870;50.336;3.506;2022-08-19T03:03:36;13.27;;;5.97;;
68082;SDS011;54870;50.336;3.506;2022-08-19T03:06:07;12.93;;;6.65;;
68082;SDS011;54870;50.336;3.506;2022-08-19T03:08:33;15.05;;;6.20;;
68082;SDS011;54870;50.336;3.506;2022-08-19T03:10:59;13.07;;;6.10;;
68082;SDS011;54870;50.336;3.506;2022-08-19T03:13:25;15.02;;;6.30;;
68082;SDS011;54870;50.336;3.506;2022-08-19T03:15:53;12.02;;;6.93;;
68082;SDS011;54870;50.336;3.506;2022-08-19T03:18:19;16.08;;;6.38;;
68082;SDS011;54870;50.336;3.506;2022-08-19T03:20:46;13.05;;;5.97;;
68082;SDS011;54870;50.336;3.506;2022-08-19T03:23:12;12.23;;;6.45;;
68082;SDS011;54870;50.336;3.506;2022-08-19T03:25:40;14.60;;;6.22;;
68082;SDS011;54870;50.336;3.506;2022-08-19T03:28:08;13.02;;;6.00;;
68082;SDS011;54870;50.336;3.506;2022-08-19T03:30:34;11.18;;;5.93;;
68082;SDS011;54870;50.336;3.506;2022-08-19T03:33:00;15.25;;;6.50;;
68082;SDS011;54870;50.336;3.506;2022-08-19T03:35:27;9.98;;;5.78;;
68082;SDS011;54870;50.336;3.506;2022-08-19T03:37:53;11.88;;;6.10;;
68082;SDS011;54870;50.336;3.506;2022-08-19T03:40:19;12.18;;;6.13;;
68082;SDS011;54870;50.336;3.506;2022-08-19T03:42:45;9.75;;;5.43;;
68082;SDS011;54870;50.336;3.506;2022-08-19T03:45:11;12.02;;;5.63;;
68082;SDS011;54870;50.336;3.506;2022-08-19T03:47:37;10.20;;;5.57;;
68082;SDS011;54870;50.336;3.506;2022-08-19T03:50:04;10.65;;;5.43;;
68082;SDS011;54870;50.336;3.506;2022-08-19T03:52:30;12.10;;;5.32;;
68082;SDS011;54870;50.336;3.506;2022-08-19T03:54:56;10.32;;;5.30;;
68082;SDS011;54870;50.336;3.506;2022-08-19T03:57:22;11.95;;;5.30;;
68082;SDS011;54870;50.336;3.506;2022-08-19T03:59:48;11.63;;;5.72;;
68082;SDS011;54870;50.336;3.506;2022-08-19T04:02:14;16.20;;;8.25;;
68082;SDS011;54870;50.336;3.506;2022-08-19T04:04:41;13.13;;;5.97;;
68082;SDS011;54870;50.336;3.506;2022-08-19T04:07:08;11.75;;;6.15;;
68082;SDS011;54870;50.336;3.506;2022-08-19T04:09:35;10.38;;;5.65;;
68082;SDS011;54870;50.336;3.506;2022-08-19T04:12:01;10.80;;;5.60;;
68082;SDS011;54870;50.336;3.506;2022-08-19T04:14:30;14.48;;;5.43;;
68082;SDS011;54870;50.336;3.506;2022-08-19T04:16:56;13.07;;;5.38;;
68082;SDS011;54870;50.336;3.506;2022-08-19T04:19:23;9.40;;;4.90;;
68082;SDS011;54870;50.336;3.506;2022-08-19T04:21:50;9.57;;;4.85;;
68082;SDS011;54870;50.336;3.506;2022-08-19T04:24:16;11.70;;;5.25;;
68082;SDS011;54870;50.336;3.506;2022-08-19T04:26:43;11.88;;;5.82;;
68082;SDS011;54870;50.336;3.506;2022-08-19T04:29:11;10.95;;;5.20;;
68082;SDS011;54870;50.336;3.506;2022-08-19T04:31:37;9.82;;;5.18;;
68082;SDS011;54870;50.336;3.506;2022-08-19T04:34:04;12.02;;;5.30;;
68082;SDS011;54870;50.336;3.506;2022-08-19T04:36:32;10.95;;;5.28;;
68082;SDS011;54870;50.336;3.506;2022-08-19T04:38:59;9.85;;;4.75;;
68082;SDS011;54870;50.336;3.506;2022-08-19T04:41:26;10.82;;;4.97;;
68082;SDS011;54870;50.336;3.506;2022-08-19T04:44:11;9.90;;;4.70;;
68082;SDS011;54870;50.336;3.506;2022-08-19T04:46:37;10.05;;;4.65;;
68082;SDS011;54870;50.336;3.506;2022-08-19T04:49:05;12.65;;;4.38;;
68082;SDS011;54870;50.336;3.506;2022-08-19T04:51:33;9.25;;;4.57;;
68082;SDS011;54870;50.336;3.506;2022-08-19T04:54:03;11.90;;;4.45;;
68082;SDS011;54870;50.336;3.506;2022-08-19T04:56:29;7.20;;;3.78;;
68082;SDS011;54870;50.336;3.506;2022-08-19T04:58:55;8.50;;;3.85;;
68082;SDS011;54870;50.336;3.506;2022-08-19T05:01:23;10.27;;;3.90;;
68082;SDS011;54870;50.336;3.506;2022-08-19T05:03:49;9.13;;;4.00;;
68082;SDS011;54870;50.336;3.506;2022-08-19T05:06:16;8.27;;;3.88;;
68082;SDS011;54870;50.336;3.506;2022-08-19T05:08:43;10.93;;;4.95;;
68082;SDS011;54870;50.336;3.506;2022-08-19T05:11:17;9.02;;;3.70;;
68082;SDS011;54870;50.336;3.506;2022-08-19T05:13:45;9.75;;;4.72;;
68082;SDS011;54870;50.336;3.506;2022-08-19T05:16:11;12.05;;;3.83;;
68082;SDS011;54870;50.336;3.506;2022-08-19T05:18:38;9.55;;;4.20;;
68082;SDS011;54870;50.336;3.506;2022-08-19T05:21:23;10.73;;;3.90;;
68082;SDS011;54870;50.336;3.506;2022-08-19T05:24:08;11.30;;;4.18;;
68082;SDS011;54870;50.336;3.506;2022-08-19T05:26:35;12.07;;;4.20;;
68082;SDS011;54870;50.336;3.506;2022-08-19T05:29:01;12.68;;;4.22;;
68082;SDS011;54870;50.336;3.506;2022-08-19T05:31:27;11.05;;;4.32;;
68082;SDS011;54870;50.336;3.506;2022-08-19T05:33:53;8.23;;;4.22;;
68082;SDS011;54870;50.336;3.506;2022-08-19T05:36:19;9.45;;;4.13;;
68082;SDS011;54870;50.336;3.506;2022-08-19T05:38:45;13.65;;;4.50;;
68082;SDS011;54870;50.336;3.506;2022-08-19T05:41:13;10.98;;;4.38;;
68082;SDS011;54870;50.336;3.506;2022-08-19T05:43:39;10.48;;;4.38;;
68082;SDS011;54870;50.336;3.506;2022-08-19T05:46:05;11.75;;;4.80;;
68082;SDS011;54870;50.336;3.506;2022-08-19T05:48:34;13.65;;;4.72;;
68082;SDS011;54870;50.336;3.506;2022-08-19T05:51:06;13.43;;;4.88;;
68082;SDS011;54870;50.336;3.506;2022-08-19T05:53:34;11.88;;;4.65;;
68082;SDS011;54870;50.336;3.506;2022-08-19T05:56:08;10.63;;;4.90;;
68082;SDS011;54870;50.336;3.506;2022-08-19T05:58:35;10.60;;;5.22;;
68082;SDS011;54870;50.336;3.506;2022-08-19T06:01:01;9.15;;;4.78;;
68082;SDS011;54870;50.336;3.506;2022-08-19T06:03:30;8.27;;;4.63;;
68082;SDS011;54870;50.336;3.506;2022-08-19T06:05:56;11.32;;;5.35;;
68082;SDS011;54870;50.336;3.506;2022-08-19T06:08:24;13.30;;;5.22;;
68082;SDS011;54870;50.336;3.506;2022-08-19T06:10:50;12.13;;;4.85;;
68082;SDS011;54870;50.336;3.506;2022-08-19T06:13:16;10.88;;;5.50;;
68082;SDS011;54870;50.336;3.506;2022-08-19T06:15:44;12.00;;;5.40;;
68082;SDS011;54870;50.336;3.506;2022-08-19T06:18:11;9.43;;;5.07;;
68082;SDS011;54870;50.336;3.506;2022-08-19T06:20:37;9.48;;;4.88;;
68082;SDS011;54870;50.336;3.506;2022-08-19T06:23:03;12.52;;;5.47;;
68082;SDS011;54870;50.336;3.506;2022-08-19T06:25:29;10.27;;;5.03;;
68082;SDS011;54870;50.336;3.506;2022-08-19T06:27:55;9.85;;;4.78;;
68082;SDS011;54870;50.336;3.506;2022-08-19T06:30:21;8.98;;;4.85;;
68082;SDS011;54870;50.336;3.506;2022-08-19T06:32:47;11.13;;;5.30;;
68082;SDS011;54870;50.336;3.506;2022-08-19T06:35:13;10.38;;;4.63;;
68082;SDS011;54870;50.336;3.506;2022-08-19T06:37:39;10.20;;;4.78;;
68082;SDS011;54870;50.336;3.506;2022-08-19T06:40:06;8.55;;;4.43;;
68082;SDS011;54870;50.336;3.506;2022-08-19T06:42:37;9.60;;;4.78;;
68082;SDS011;54870;50.336;3.506;2022-08-19T06:45:04;12.55;;;5.20;;
68082;SDS011;54870;50.336;3.506;2022-08-19T06:47:30;13.55;;;5.38;;
68082;SDS011;54870;50.336;3.506;2022-08-19T06:49:58;13.63;;;5.45;;
68082;SDS011;54870;50.336;3.506;2022-08-19T06:52:28;9.02;;;4.72;;
68082;SDS011;54870;50.336;3.506;2022-08-19T06:54:54;10.40;;;4.93;;
68082;SDS011;54870;50.336;3.506;2022-08-19T06:57:21;11.00;;;5.63;;
68082;SDS011;54870;50.336;3.506;2022-08-19T06:59:47;14.13;;;5.57;;
68082;SDS011;54870;50.336;3.506;2022-08-19T07:02:13;11.85;;;4.90;;
68082;SDS011;54870;50.336;3.506;2022-08-19T07:04:39;9.15;;;4.68;;
68082;SDS011;54870;50.336;3.506;2022-08-19T07:07:08;9.77;;;4.80;;
68082;SDS011;54870;50.336;3.506;2022-08-19T07:09:35;12.55;;;5.22;;
68082;SDS011;54870;50.336;3.506;2022-08-19T07:12:02;10.10;;;5.38;;
68082;SDS011;54870;50.336;3.506;2022-08-19T07:14:28;10.98;;;4.75;;
68082;SDS011;54870;50.336;3.506;2022-08-19T07:16:55;14.35;;;5.30;;
68082;SDS011;54870;50.336;3.506;2022-08-19T07:19:22;11.00;;;5.10;;
68082;SDS011;54870;50.336;3.506;2022-08-19T07:21:49;10.80;;;5.13;;
68082;SDS011;54870;50.336;3.506;2022-08-19T07:24:18;11.63;;;4.95;;
68082;SDS011;54870;50.336;3.506;2022-08-19T07:26:44;7.63;;;4.63;;
68082;SDS011;54870;50.336;3.506;2022-08-19T07:29:10;13.13;;;4.53;;
68082;SDS011;54870;50.336;3.506;2022-08-19T07:31:37;10.43;;;4.60;;
68082;SDS011;54870;50.336;3.506;2022-08-19T07:34:04;8.60;;;4.70;;
68082;SDS011;54870;50.336;3.506;2022-08-19T07:36:32;10.63;;;4.88;;
68082;SDS011;54870;50.336;3.506;2022-08-19T07:39:00;9.00;;;4.22;;
68082;SDS011;54870;50.336;3.506;2022-08-19T07:41:27;8.85;;;5.03;;
68082;SDS011;54870;50.336;3.506;2022-08-19T07:43:55;7.95;;;4.15;;
68082;SDS011;54870;50.336;3.506;2022-08-19T07:46:21;10.18;;;4.47;;
68082;SDS011;54870;50.336;3.506;2022-08-19T07:48:48;12.65;;;5.50;;
68082;SDS011;54870;50.336;3.506;2022-08-19T07:51:16;12.45;;;4.65;;
68082;SDS011;54870;50.336;3.506;2022-08-19T07:53:42;10.13;;;4.38;;
68082;SDS011;54870;50.336;3.506;2022-08-19T07:56:10;9.30;;;4.65;;
68082;SDS011;54870;50.336;3.506;2022-08-19T07:58:37;12.55;;;4.53;;
68082;SDS011;54870;50.336;3.506;2022-08-19T08:01:04;11.13;;;4.75;;
68082;SDS011;54870;50.336;3.506;2022-08-19T08:03:31;8.35;;;4.65;;
68082;SDS011;54870;50.336;3.506;2022-08-19T08:06:16;10.27;;;4.85;;
68082;SDS011;54870;50.336;3.506;2022-08-19T08:09:02;11.70;;;4.80;;
68082;SDS011;54870;50.336;3.506;2022-08-19T08:11:47;9.15;;;4.35;;
68082;SDS011;54870;50.336;3.506;2022-08-19T08:14:15;11.85;;;3.92;;
68082;SDS011;54870;50.336;3.506;2022-08-19T08:16:41;10.15;;;3.97;;
68082;SDS011;54870;50.336;3.506;2022-08-19T08:19:09;8.60;;;3.90;;
68082;SDS011;54870;50.336;3.506;2022-08-19T08:21:35;8.38;;;3.55;;
68082;SDS011;54870;50.336;3.506;2022-08-19T08:24:01;7.05;;;3.63;;
68082;SDS011;54870;50.336;3.506;2022-08-19T08:26:27;7.15;;;3.30;;
68082;SDS011;54870;50.336;3.506;2022-08-19T08:28:53;8.30;;;3.50;;
68082;SDS011;54870;50.336;3.506;2022-08-19T08:31:19;5.32;;;3.40;;
68082;SDS011;54870;50.336;3.506;2022-08-19T08:33:46;8.27;;;3.80;;
68082;SDS011;54870;50.336;3.506;2022-08-19T08:36:12;8.15;;;3.25;;
68082;SDS011;54870;50.336;3.506;2022-08-19T08:38:40;7.15;;;3.53;;
68082;SDS011;54870;50.336;3.506;2022-08-19T08:41:13;8.98;;;3.45;;
68082;SDS011;54870;50.336;3.506;2022-08-19T08:43:44;6.53;;;3.47;;
68082;SDS011;54870;50.336;3.506;2022-08-19T08:46:19;7.15;;;3.33;;
68082;SDS011;54870;50.336;3.506;2022-08-19T08:48:59;8.88;;;3.70;;
68082;SDS011;54870;50.336;3.506;2022-08-19T08:51:40;10.65;;;3.75;;
68082;SDS011;54870;50.336;3.506;2022-08-19T08:54:08;6.38;;;3.45;;
68082;SDS011;54870;50.336;3.506;2022-08-19T08:56:37;9.27;;;3.47;;
68082;SDS011;54870;50.336;3.506;2022-08-19T08:59:12;8.10;;;3.83;;
68082;SDS011;54870;50.336;3.506;2022-08-19T09:01:42;7.38;;;3.47;;
68082;SDS011;54870;50.336;3.506;2022-08-19T09:04:08;7.25;;;3.70;;
68082;SDS011;54870;50.336;3.506;2022-08-19T09:11:43;8.57;;;3.55;;
68082;SDS011;54870;50.336;3.506;2022-08-19T09:16:39;8.18;;;3.80;;
68082;SDS011;54870;50.336;3.506;2022-08-19T09:19:06;9.50;;;3.58;;
68082;SDS011;54870;50.336;3.506;2022-08-19T09:21:32;7.68;;;3.45;;
68082;SDS011;54870;50.336;3.506;2022-08-19T09:24:00;8.13;;;3.03;;
68082;SDS011;54870;50.336;3.506;2022-08-19T09:26:26;5.85;;;3.08;;
68082;SDS011;54870;50.336;3.506;2022-08-19T09:28:52;8.65;;;3.50;;
68082;SDS011;54870;50.336;3.506;2022-08-19T09:31:23;4.70;;;2.80;;
68082;SDS011;54870;50.336;3.506;2022-08-19T09:33:50;4.80;;;2.63;;
68082;SDS011;54870;50.336;3.506;2022-08-19T09:36:17;8.85;;;2.65;;
68082;SDS011;54870;50.336;3.506;2022-08-19T09:38:43;6.80;;;2.80;;
68082;SDS011;54870;50.336;3.506;2022-08-19T09:41:11;4.28;;;2.60;;
68082;SDS011;54870;50.336;3.506;2022-08-19T09:43:38;3.92;;;1.67;;
68082;SDS011;54870;50.336;3.506;2022-08-19T09:46:05;3.22;;;1.40;;
68082;SDS011;54870;50.336;3.506;2022-08-19T09:48:34;2.92;;;1.20;;
68082;SDS011;54870;50.336;3.506;2022-08-19T09:51:07;2.88;;;1.40;;
68082;SDS011;54870;50.336;3.506;2022-08-19T09:53:37;4.32;;;1.92;;
68082;SDS011;54870;50.336;3.506;2022-08-19T09:56:04;3.00;;;1.33;;
68082;SDS011;54870;50.336;3.506;2022-08-19T09:58:31;3.08;;;1.52;;
68082;SDS011;54870;50.336;3.506;2022-08-19T10:00:58;3.35;;;1.77;;
68082;SDS011;54870;50.336;3.506;2022-08-19T10:03:24;2.45;;;1.60;;
68082;SDS011;54870;50.336;3.506;2022-08-19T10:05:51;3.60;;;2.30;;
68082;SDS011;54870;50.336;3.506;2022-08-19T10:08:21;2.95;;;2.08;;
68082;SDS011;54870;50.336;3.506;2022-08-19T10:10:48;4.38;;;2.20;;
68082;SDS011;54870;50.336;3.506;2022-08-19T10:13:16;3.95;;;2.20;;
68082;SDS011;54870;50.336;3.506;2022-08-19T10:15:42;4.97;;;2.47;;
68082;SDS011;54870;50.336;3.506;2022-08-19T10:18:08;4.85;;;2.50;;
68082;SDS011;54870;50.336;3.506;2022-08-19T10:20:36;4.30;;;2.40;;
68082;SDS011;54870;50.336;3.506;2022-08-19T10:23:02;3.22;;;1.90;;
68082;SDS011;54870;50.336;3.506;2022-08-19T10:25:28;3.95;;;2.03;;
68082;SDS011;54870;50.336;3.506;2022-08-19T10:27:55;3.30;;;1.80;;
68082;SDS011;54870;50.336;3.506;2022-08-19T10:30:21;3.00;;;1.65;;
68082;SDS011;54870;50.336;3.506;2022-08-19T10:32:47;2.00;;;1.60;;
68082;SDS011;54870;50.336;3.506;2022-08-19T10:35:13;2.92;;;1.95;;
68082;SDS011;54870;50.336;3.506;2022-08-19T10:37:39;2.00;;;1.45;;
68082;SDS011;54870;50.336;3.506;2022-08-19T10:40:06;3.08;;;1.73;;
68082;SDS011;54870;50.336;3.506;2022-08-19T10:42:33;2.47;;;1.40;;
68082;SDS011;54870;50.336;3.506;2022-08-19T10:44:59;3.30;;;1.38;;
68082;SDS011;54870;50.336;3.506;2022-08-19T10:47:25;3.88;;;1.48;;
68082;SDS011;54870;50.336;3.506;2022-08-19T10:49:52;2.63;;;1.58;;
68082;SDS011;54870;50.336;3.506;2022-08-19T10:52:38;2.70;;;1.33;;
68082;SDS011;54870;50.336;3.506;2022-08-19T10:55:05;2.72;;;1.20;;
68082;SDS011;54870;50.336;3.506;2022-08-19T10:57:50;4.20;;;1.30;;
68082;SDS011;54870;50.336;3.506;2022-08-19T11:00:18;3.30;;;1.40;;
68082;SDS011;54870;50.336;3.506;2022-08-19T11:02:44;3.70;;;1.30;;
68082;SDS011;54870;50.336;3.506;2022-08-19T11:05:10;2.45;;;1.25;;
68082;SDS011;54870;50.336;3.506;2022-08-19T11:07:40;2.50;;;1.17;;
68082;SDS011;54870;50.336;3.506;2022-08-19T11:10:09;1.70;;;0.90;;
68082;SDS011;54870;50.336;3.506;2022-08-19T11:12:39;2.25;;;1.17;;
68082;SDS011;54870;50.336;3.506;2022-08-19T11:15:06;2.92;;;1.10;;
68082;SDS011;54870;50.336;3.506;2022-08-19T11:17:35;2.40;;;1.30;;
68082;SDS011;54870;50.336;3.506;2022-08-19T11:20:05;1.80;;;1.05;;
68082;SDS011;54870;50.336;3.506;2022-08-19T11:22:31;2.75;;;1.17;;
68082;SDS011;54870;50.336;3.506;2022-08-19T11:24:57;1.75;;;1.00;;
68082;SDS011;54870;50.336;3.506;2022-08-19T11:27:23;2.85;;;1.38;;
68082;SDS011;54870;50.336;3.506;2022-08-19T11:29:49;3.22;;;1.27;;
68082;SDS011;54870;50.336;3.506;2022-08-19T11:32:15;3.47;;;1.10;;
68082;SDS011;54870;50.336;3.506;2022-08-19T11:34:41;4.22;;;1.33;;
68082;SDS011;54870;50.336;3.506;2022-08-19T11:37:07;3.72;;;1.35;;
68082;SDS011;54870;50.336;3.506;2022-08-19T11:39:34;2.67;;;1.60;;
68082;SDS011;54870;50.336;3.506;2022-08-19T11:42:02;3.55;;;1.77;;
68082;SDS011;54870;50.336;3.506;2022-08-19T11:44:48;7.70;;;2.28;;
68082;SDS011;54870;50.336;3.506;2022-08-19T11:47:14;4.13;;;2.53;;
68082;SDS011;54870;50.336;3.506;2022-08-19T11:49:40;4.78;;;2.83;;
68082;SDS011;54870;50.336;3.506;2022-08-19T11:52:07;7.43;;;3.03;;
68082;SDS011;54870;50.336;3.506;2022-08-19T11:54:33;7.15;;;3.38;;
68082;SDS011;54870;50.336;3.506;2022-08-19T11:56:59;7.82;;;3.10;;
68082;SDS011;54870;50.336;3.506;2022-08-19T11:59:26;5.32;;;2.97;;
68082;SDS011;54870;50.336;3.506;2022-08-19T12:01:52;5.85;;;3.30;;
68082;SDS011;54870;50.336;3.506;2022-08-19T12:04:18;4.38;;;2.80;;
68082;SDS011;54870;50.336;3.506;2022-08-19T12:06:44;6.50;;;3.00;;
68082;SDS011;54870;50.336;3.506;2022-08-19T12:09:10;6.07;;;3.53;;
68082;SDS011;54870;50.336;3.506;2022-08-19T12:11:37;6.10;;;3.63;;
68082;SDS011;54870;50.336;3.506;2022-08-19T12:14:04;7.95;;;3.60;;
68082;SDS011;54870;50.336;3.506;2022-08-19T12:16:30;5.22;;;3.40;;
68082;SDS011;54870;50.336;3.506;2022-08-19T12:18:57;5.00;;;3.40;;
68082;SDS011;54870;50.336;3.506;2022-08-19T12:21:28;4.40;;;2.70;;
68082;SDS011;54870;50.336;3.506;2022-08-19T12:23:55;4.55;;;2.20;;
68082;SDS011;54870;50.336;3.506;2022-08-19T12:26:21;4.90;;;1.95;;
68082;SDS011;54870;50.336;3.506;2022-08-19T12:28:47;3.80;;;2.33;;
68082;SDS011;54870;50.336;3.506;2022-08-19T12:31:14;3.28;;;2.28;;
68082;SDS011;54870;50.336;3.506;2022-08-19T12:33:40;4.57;;;2.50;;
68082;SDS011;54870;50.336;3.506;2022-08-19T12:36:07;2.47;;;2.00;;
68082;SDS011;54870;50.336;3.506;2022-08-19T12:38:34;2.88;;;2.05;;
68082;SDS011;54870;50.336;3.506;2022-08-19T12:41:01;5.35;;;2.03;;
68082;SDS011;54870;50.336;3.506;2022-08-19T12:43:30;7.50;;;1.83;;
68082;SDS011;54870;50.336;3.506;2022-08-19T12:45:56;4.00;;;2.28;;
68082;SDS011;54870;50.336;3.506;2022-08-19T12:48:22;3.30;;;2.10;;
68082;SDS011;54870;50.336;3.506;2022-08-19T12:50:49;3.75;;;2.05;;
68082;SDS011;54870;50.336;3.506;2022-08-19T12:53:15;4.22;;;1.98;;
68082;SDS011;54870;50.336;3.506;2022-08-19T12:55:41;4.35;;;1.95;;
68082;SDS011;54870;50.336;3.506;2022-08-19T12:58:10;4.63;;;2.60;;
68082;SDS011;54870;50.336;3.506;2022-08-19T13:00:37;4.40;;;3.03;;
68082;SDS011;54870;50.336;3.506;2022-08-19T13:03:03;6.22;;;3.15;;
68082;SDS011;54870;50.336;3.506;2022-08-19T13:05:30;4.15;;;2.80;;
68082;SDS011;54870;50.336;3.506;2022-08-19T13:07:57;5.25;;;3.30;;
68082;SDS011;54870;50.336;3.506;2022-08-19T13:10:28;5.72;;;2.85;;
68082;SDS011;54870;50.336;3.506;2022-08-19T13:12:55;6.65;;;3.15;;
68082;SDS011;54870;50.336;3.506;2022-08-19T13:15:22;3.92;;;2.70;;
68082;SDS011;54870;50.336;3.506;2022-08-19T13:17:48;7.15;;;3.13;;
68082;SDS011;54870;50.336;3.506;2022-08-19T13:20:16;4.55;;;2.72;;
68082;SDS011;54870;50.336;3.506;2022-08-19T13:22:42;6.03;;;3.17;;
68082;SDS011;54870;50.336;3.506;2022-08-19T13:25:10;8.57;;;3.58;;
68082;SDS011;54870;50.336;3.506;2022-08-19T13:27:36;7.03;;;2.90;;
68082;SDS011;54870;50.336;3.506;2022-08-19T13:30:02;6.57;;;3.17;;
68082;SDS011;54870;50.336;3.506;2022-08-19T13:32:47;6.18;;;3.63;;
68082;SDS011;54870;50.336;3.506;2022-08-19T13:35:32;7.20;;;3.33;;
68082;SDS011;54870;50.336;3.506;2022-08-19T13:37:58;6.60;;;3.80;;
68082;SDS011;54870;50.336;3.506;2022-08-19T13:40:25;6.13;;;3.47;;
68082;SDS011;54870;50.336;3.506;2022-08-19T13:42:53;3.75;;;2.53;;
68082;SDS011;54870;50.336;3.506;2022-08-19T13:45:20;5.80;;;2.55;;
68082;SDS011;54870;50.336;3.506;2022-08-19T13:47:47;4.50;;;2.03;;
68082;SDS011;54870;50.336;3.506;2022-08-19T13:50:15;5.07;;;2.45;;
68082;SDS011;54870;50.336;3.506;2022-08-19T13:52:42;5.53;;;1.92;;
68082;SDS011;54870;50.336;3.506;2022-08-19T13:55:09;5.03;;;1.88;;
68082;SDS011;54870;50.336;3.506;2022-08-19T13:57:35;3.80;;;1.58;;
68082;SDS011;54870;50.336;3.506;2022-08-19T14:00:04;3.35;;;1.45;;
68082;SDS011;54870;50.336;3.506;2022-08-19T14:02:30;3.40;;;1.60;;
68082;SDS011;54870;50.336;3.506;2022-08-19T14:04:58;2.22;;;1.27;;
68082;SDS011;54870;50.336;3.506;2022-08-19T14:07:24;3.40;;;1.27;;
68082;SDS011;54870;50.336;3.506;2022-08-19T14:09:50;1.48;;;1.17;;
68082;SDS011;54870;50.336;3.506;2022-08-19T14:12:20;2.75;;;1.00;;
68082;SDS011;54870;50.336;3.506;2022-08-19T14:14:46;3.60;;;0.90;;
68082;SDS011;54870;50.336;3.506;2022-08-19T14:17:12;2.45;;;0.88;;
68082;SDS011;54870;50.336;3.506;2022-08-19T14:19:38;1.63;;;1.15;;
68082;SDS011;54870;50.336;3.506;2022-08-19T14:22:05;1.77;;;0.80;;
68082;SDS011;54870;50.336;3.506;2022-08-19T14:24:31;2.10;;;0.60;;
68082;SDS011;54870;50.336;3.506;2022-08-19T14:26:57;1.58;;;0.57;;
68082;SDS011;54870;50.336;3.506;2022-08-19T14:29:24;1.13;;;0.60;;
68082;SDS011;54870;50.336;3.506;2022-08-19T14:31:50;1.48;;;0.60;;
68082;SDS011;54870;50.336;3.506;2022-08-19T14:34:16;0.93;;;0.50;;
68082;SDS011;54870;50.336;3.506;2022-08-19T14:36:42;0.82;;;0.57;;
68082;SDS011;54870;50.336;3.506;2022-08-19T14:39:10;1.83;;;0.57;;
68082;SDS011;54870;50.336;3.506;2022-08-19T14:41:36;1.50;;;1.05;;
68082;SDS011;54870;50.336;3.506;2022-08-19T14:44:05;2.33;;;1.10;;
68082;SDS011;54870;50.336;3.506;2022-08-19T14:46:31;3.63;;;1.45;;
68082;SDS011;54870;50.336;3.506;2022-08-19T14:48:57;2.92;;;1.70;;
68082;SDS011;54870;50.336;3.506;2022-08-19T14:51:24;2.22;;;1.40;;